Time;durP1;ratioP1;P1;durP2;ratioP2;P2;SDS_P1;SDS_P2;PMS_P1;PMS_P2;Temp;Humidity;BMP_temperature;BMP_pressure;BME280_temperature;BME280_humidity;BME280_pressure;Samples;Min_cycle;Max_cycle;Signal;HPM_P1;HPM_P2
2023/09/06 00:00:57;;;;;;;4.38;3.10;;;;;;;16.77;100.00;101729.69;5057162;28;20029;-74
2023/09/06 00:03:23;;;;;;;4.25;3.42;;;;;;;16.76;100.00;101732.63;5045942;28;20041;-74
2023/09/06 00:05:48;;;;;;;3.58;2.97;;;;;;;16.74;100.00;101724.69;5064162;28;20039;-74
2023/09/06 00:08:14;;;;;;;3.80;3.15;;;;;;;16.72;100.00;101731.38;5057180;28;20113;-74
2023/09/06 00:10:41;;;;;;;5.40;3.30;;;;;;;16.65;99.96;101731.41;5053983;28;20029;-74
2023/09/06 00:13:07;;;;;;;3.75;3.20;;;;;;;16.59;100.00;101732.31;5053032;28;20135;-73
2023/09/06 00:15:32;;;;;;;4.22;3.45;;;;;;;16.55;99.93;101728.34;5053809;28;20575;-73
2023/09/06 00:17:58;;;;;;;3.28;2.97;;;;;;;16.51;100.00;101730.63;5054268;28;20379;-73
2023/09/06 00:20:24;;;;;;;3.88;3.45;;;;;;;16.46;100.00;101730.47;5053427;28;20036;-74
2023/09/06 00:22:56;;;;;;;3.30;3.00;;;;;;;16.42;100.00;101723.78;5059492;28;20052;-74
2023/09/06 00:25:21;;;;;;;4.80;3.67;;;;;;;16.36;100.00;101725.47;5053403;28;20017;-74
2023/09/06 00:27:50;;;;;;;3.50;3.20;;;;;;;16.34;100.00;101725.69;5054390;28;20036;-74
2023/09/06 00:30:15;;;;;;;3.75;3.42;;;;;;;16.32;100.00;101721.50;5037367;28;20059;-74
2023/09/06 00:32:41;;;;;;;3.80;3.30;;;;;;;16.33;100.00;101717.75;5053060;28;20037;-75
2023/09/06 00:35:06;;;;;;;4.72;3.85;;;;;;;16.35;100.00;101715.66;5063867;28;20051;-75
2023/09/06 00:37:39;;;;;;;6.45;3.40;;;;;;;16.36;100.00;101714.63;5057937;28;20025;-74
2023/09/06 00:40:28;;;;;;;3.40;3.10;;;;;;;16.35;99.50;101718.38;5053353;28;20557;-74
2023/09/06 00:42:52;;;;;;;;;;;;;;;16.32;99.37;101711.50;5046822;28;20032;-74
2023/09/06 00:45:26;;;;;;;3.90;3.50;;;;;;;16.41;98.27;101713.97;5049525;28;19921;-74
2023/09/06 00:47:51;;;;;;;4.65;3.40;;;;;;;16.42;97.91;101707.47;5052565;28;20090;-74
2023/09/06 00:50:18;;;;;;;3.80;3.47;;;;;;;16.46;97.27;101709.53;5034934;28;20417;-73
2023/09/06 00:52:43;;;;;;;4.13;3.47;;;;;;;16.48;96.99;101710.16;5057979;28;20175;-74
2023/09/06 00:55:09;;;;;;;4.00;3.33;;;;;;;16.43;96.48;101717.31;5039660;28;20025;-74
2023/09/06 00:57:34;;;;;;;4.28;3.40;;;;;;;16.40;96.45;101709.56;5055516;28;20029;-74
2023/09/06 01:00:00;;;;;;;3.55;3.25;;;;;;;16.36;96.47;101711.91;5019358;28;20021;-74
2023/09/06 01:02:30;;;;;;;4.30;3.10;;;;;;;16.33;96.38;101715.03;5039194;28;20017;-74
2023/09/06 01:04:56;;;;;;;3.78;3.15;;;;;;;16.26;96.66;101716.94;5055056;28;20538;-74
2023/09/06 01:07:23;;;;;;;3.35;2.90;;;;;;;16.24;97.13;101719.06;5053940;28;20029;-74
2023/09/06 01:09:48;;;;;;;6.93;3.70;;;;;;;16.27;96.88;101722.16;5036131;28;20463;-74
2023/09/06 01:12:14;;;;;;;3.50;3.20;;;;;;;16.25;97.01;101718.81;5068362;28;20488;-74
2023/09/06 01:14:40;;;;;;;3.47;3.17;;;;;;;16.23;97.01;101717.38;5053335;28;20460;-73
2023/09/06 01:17:09;;;;;;;4.50;3.20;;;;;;;16.24;96.83;101721.75;5063480;28;20135;-74
2023/09/06 01:19:36;;;;;;;4.03;3.35;;;;;;;16.24;96.96;101713.63;5019097;28;20039;-74
2023/09/06 01:22:08;;;;;;;3.83;3.42;;;;;;;16.19;96.65;101723.22;5034710;28;20033;-74
2023/09/06 01:24:35;;;;;;;3.50;3.20;;;;;;;16.14;96.74;101725.75;5019016;28;20025;-75
2023/09/06 01:27:01;;;;;;;3.72;3.05;;;;;;;16.10;96.54;101727.22;5051959;28;20088;-74
2023/09/06 01:29:29;;;;;;;3.50;2.95;;;;;;;16.07;96.41;101727.63;5013443;28;20480;-74
2023/09/06 01:31:54;;;;;;;4.35;3.83;;;;;;;16.05;96.73;101727.03;5060369;28;20548;-74
2023/09/06 01:34:19;;;;;;;5.10;2.88;;;;;;;16.00;96.22;101724.13;5052745;28;20051;-75
2023/09/06 01:36:45;;;;;;;3.80;3.40;;;;;;;15.97;96.23;101727.25;5052156;28;20036;-75
2023/09/06 01:39:10;;;;;;;3.33;3.00;;;;;;;15.90;96.40;101728.09;5051767;28;20443;-74
2023/09/06 01:41:36;;;;;;;4.10;3.10;;;;;;;15.88;96.43;101721.19;5054144;28;20021;-74
2023/09/06 01:44:01;;;;;;;4.32;3.20;;;;;;;15.84;97.50;101725.34;5040386;28;20051;-74
2023/09/06 01:46:26;;;;;;;4.85;3.50;;;;;;;15.86;98.01;101712.44;5058741;28;20036;-74
2023/09/06 01:48:52;;;;;;;6.70;3.55;;;;;;;15.89;97.77;101722.88;5052362;28;20339;-74
2023/09/06 01:51:17;;;;;;;5.15;3.50;;;;;;;15.90;97.72;101714.50;5058331;28;20711;-74
2023/09/06 01:53:43;;;;;;;5.55;3.65;;;;;;;15.95;97.31;101721.19;5055460;28;20031;-75
2023/09/06 01:56:08;;;;;;;3.72;3.42;;;;;;;15.97;97.24;101719.09;5051937;28;20044;-74
2023/09/06 01:58:37;;;;;;;4.20;3.40;;;;;;;16.02;96.62;101719.31;5052242;28;20035;-74
2023/09/06 02:01:05;;;;;;;4.07;3.55;;;;;;;16.02;96.20;101716.59;5057626;28;20595;-74
2023/09/06 02:03:34;;;;;;;4.18;3.20;;;;;;;16.07;95.95;101730.34;5057176;28;20027;-74
2023/09/06 02:06:01;;;;;;;4.55;3.60;;;;;;;16.15;95.47;101727.41;5045972;28;20036;-75
2023/09/06 02:08:26;;;;;;;3.78;3.45;;;;;;;16.19;94.67;101723.22;5050725;28;20052;-73
2023/09/06 02:10:52;;;;;;;3.33;3.03;;;;;;;16.23;94.36;101722.81;5054782;28;20846;-75
2023/09/06 02:13:17;;;;;;;6.68;3.25;;;;;;;16.29;93.83;101727.38;5053449;28;20431;-76
2023/09/06 02:15:43;;;;;;;3.40;3.10;;;;;;;16.30;93.25;101734.47;5053625;28;20519;-74
2023/09/06 02:18:09;;;;;;;4.75;3.70;;;;;;;16.29;93.56;101720.06;5052367;28;20048;-74
2023/09/06 02:20:35;;;;;;;4.22;3.65;;;;;;;16.29;93.20;101716.50;5053474;28;20596;-74
2023/09/06 02:23:01;;;;;;;4.03;3.60;;;;;;;16.32;92.75;101722.38;5060378;28;20037;-75
2023/09/06 02:25:30;;;;;;;4.63;3.22;;;;;;;16.32;92.35;101719.66;5054068;28;20098;-74
2023/09/06 02:28:03;;;;;;;4.78;3.67;;;;;;;16.34;92.13;101724.84;5055831;28;20081;-74
2023/09/06 02:30:28;;;;;;;5.22;3.65;;;;;;;16.30;91.95;101718.19;5051427;28;20063;-74
2023/09/06 02:32:54;;;;;;;4.15;3.75;;;;;;;16.29;92.05;101717.34;5051300;28;20453;-74
2023/09/06 02:35:20;;;;;;;3.92;3.50;;;;;;;16.35;91.32;101715.66;5056064;28;20096;-73
2023/09/06 02:37:45;;;;;;;3.97;3.58;;;;;;;16.39;91.10;101714.19;5085399;22;20084;-76
2023/09/06 02:40:15;;;;;;;5.88;3.63;;;;;;;16.41;90.87;101719.41;5026718;28;20030;-74
2023/09/06 02:42:41;;;;;;;6.25;3.67;;;;;;;16.47;90.35;101715.81;5034180;28;20025;-75
2023/09/06 02:45:13;;;;;;;7.15;3.83;;;;;;;16.55;89.53;101722.91;5042382;28;20052;-75
2023/09/06 02:48:06;;;;;;;3.80;3.33;;;;;;;16.57;89.19;101721.63;5067667;22;20053;-74
2023/09/06 02:50:59;;;;;;;5.30;3.63;;;;;;;16.67;88.37;101729.31;5032734;28;20056;-73
2023/09/06 02:53:26;;;;;;;4.43;3.47;;;;;;;16.78;87.60;101720.47;5013128;28;20018;-73
2023/09/06 02:55:54;;;;;;;4.40;3.50;;;;;;;16.92;86.66;101721.25;5051340;22;20563;-74
2023/09/06 02:58:26;;;;;;;4.25;3.72;;;;;;;17.00;86.00;101722.91;5040584;28;20021;-74
2023/09/06 03:00:57;;;;;;;4.90;3.20;;;;;;;17.11;84.89;101730.38;5051538;28;20112;-74
2023/09/06 03:03:23;;;;;;;6.38;3.65;;;;;;;17.15;84.52;101729.91;5052264;28;20029;-74
2023/09/06 03:05:53;;;;;;;5.03;3.63;;;;;;;17.23;83.52;101743.28;5049643;28;20032;-74
2023/09/06 03:08:19;;;;;;;3.78;3.00;;;;;;;17.21;83.60;101748.09;5051590;28;20028;-74
2023/09/06 03:10:44;;;;;;;3.65;3.28;;;;;;;17.04;84.30;101747.75;5052479;28;20040;-74
2023/09/06 03:13:10;;;;;;;5.70;3.35;;;;;;;16.89;85.00;101746.16;5052817;28;20017;-75
2023/09/06 03:15:43;;;;;;;5.97;3.58;;;;;;;16.67;85.54;101754.63;5046707;28;20037;-74
2023/09/06 03:18:10;;;;;;;4.45;3.47;;;;;;;16.45;86.24;101762.22;5051944;28;20032;-74
2023/09/06 03:20:56;;;;;;;3.92;3.03;;;;;;;16.28;87.16;101753.72;5050423;28;20044;-74
2023/09/06 03:23:21;;;;;;;4.53;3.17;;;;;;;16.13;88.23;101761.28;5057940;28;20052;-74
2023/09/06 03:25:57;;;;;;;4.07;3.30;;;;;;;15.93;89.90;101762.16;5068087;28;20017;-74
2023/09/06 03:28:25;;;;;;;5.70;3.67;;;;;;;15.77;90.91;101761.50;5069535;28;20090;-75
2023/09/06 03:30:51;;;;;;;4.53;3.42;;;;;;;15.61;92.77;101759.22;5064292;28;20120;-74
2023/09/06 03:33:17;;;;;;;5.45;3.67;;;;;;;15.45;94.30;101749.59;5060671;28;20405;-74
2023/09/06 03:35:45;;;;;;;5.40;3.70;;;;;;;15.26;95.89;101754.78;5051233;28;20036;-74
2023/09/06 03:38:10;;;;;;;4.22;3.05;;;;;;;15.15;96.28;101758.09;5060791;28;20029;-74
2023/09/06 03:40:36;;;;;;;3.97;3.25;;;;;;;15.10;96.37;101768.72;5054817;28;20539;-74
2023/09/06 03:43:04;;;;;;;4.13;3.72;;;;;;;15.01;96.69;101759.94;5051093;28;20047;-74
2023/09/06 03:45:30;;;;;;;8.45;4.10;;;;;;;14.92;98.35;101764.72;5051795;28;20024;-74
2023/09/06 03:47:56;;;;;;;5.15;3.45;;;;;;;14.97;98.81;101756.81;5052387;28;20052;-75
2023/09/06 03:50:21;;;;;;;6.72;3.90;;;;;;;15.00;98.50;101755.56;5046292;28;20022;-75
2023/09/06 03:52:47;;;;;;;5.60;3.63;;;;;;;15.00;98.22;101766.41;5051113;28;20405;-74
2023/09/06 03:55:13;;;;;;;6.85;3.90;;;;;;;14.96;98.60;101767.84;5052066;28;20029;-75
2023/09/06 03:57:39;;;;;;;4.90;3.75;;;;;;;14.94;98.45;101764.50;5050620;28;20495;-74
2023/09/06 04:02:49;;;;;;;4.95;3.50;;;;;;;14.90;98.02;101764.06;5050761;28;20098;-74
2023/09/06 04:05:15;;;;;;;6.32;4.00;;;;;;;14.90;98.24;101764.06;5049649;28;20029;-74
2023/09/06 04:07:40;;;;;;;5.38;4.00;;;;;;;14.93;98.25;101773.66;5051483;28;20436;-75
2023/09/06 04:10:16;;;;;;;8.73;4.25;;;;;;;14.92;98.73;101774.69;5054154;28;20488;-76
2023/09/06 04:12:44;;;;;;;5.97;4.30;;;;;;;14.89;98.89;101778.66;5052974;28;20052;-75
2023/09/06 04:15:13;;;;;;;6.05;4.32;;;;;;;14.87;98.88;101788.06;5054757;28;20029;-80
2023/09/06 04:17:40;;;;;;;6.45;4.22;;;;;;;14.76;99.21;101786.75;5057471;28;20407;-74
2023/09/06 04:20:27;;;;;;;5.65;4.22;;;;;;;14.71;100.00;101781.94;5052469;28;20028;-77
2023/09/06 04:22:55;;;;;;;5.63;3.95;;;;;;;14.70;99.74;101781.09;5053231;28;20029;-75
2023/09/06 04:25:22;;;;;;;5.43;3.92;;;;;;;14.70;99.95;101777.56;5051115;28;20024;-76
2023/09/06 04:27:48;;;;;;;5.38;4.25;;;;;;;14.66;100.00;101785.19;5054910;28;20344;-76
2023/09/06 04:30:17;;;;;;;6.30;4.32;;;;;;;14.70;100.00;101793.81;5054678;28;20039;-77
2023/09/06 04:32:46;;;;;;;6.30;3.88;;;;;;;14.67;100.00;101792.28;5036661;28;20111;-76
2023/09/06 04:35:15;;;;;;;5.60;4.28;;;;;;;14.60;100.00;101793.31;5054105;28;20056;-76
2023/09/06 04:37:44;;;;;;;5.43;4.80;;;;;;;14.55;100.00;101794.75;5056734;28;20025;-76
2023/09/06 04:40:13;;;;;;;5.72;4.55;;;;;;;14.49;100.00;101790.13;5056579;28;20035;-75
2023/09/06 04:42:40;;;;;;;4.80;4.07;;;;;;;14.62;100.00;101793.94;5055816;28;20037;-76
2023/09/06 04:45:09;;;;;;;5.43;4.25;;;;;;;14.61;100.00;101793.13;5055973;28;20159;-76
2023/09/06 04:47:35;;;;;;;6.05;4.70;;;;;;;14.52;100.00;101797.00;5054624;28;20087;-76
2023/09/06 04:50:01;;;;;;;5.90;4.53;;;;;;;14.45;100.00;101804.28;5054602;28;20025;-76
2023/09/06 04:52:27;;;;;;;5.45;4.47;;;;;;;14.37;100.00;101802.56;5055077;28;20032;-76
2023/09/06 04:54:52;;;;;;;5.95;4.40;;;;;;;14.35;100.00;101804.66;5053188;28;20048;-76
2023/09/06 04:57:19;;;;;;;6.88;4.85;;;;;;;14.42;100.00;101804.69;5054432;28;20047;-75
2023/09/06 04:59:48;;;;;;;6.10;5.05;;;;;;;14.47;100.00;101804.94;5055941;28;20021;-75
2023/09/06 05:02:15;;;;;;;7.90;4.88;;;;;;;14.38;100.00;101807.78;5053441;28;20481;-75
2023/09/06 05:04:42;;;;;;;8.00;5.38;;;;;;;14.30;100.00;101805.22;5054169;28;20032;-75
2023/09/06 05:07:07;;;;;;;7.55;4.90;;;;;;;14.25;100.00;101810.41;5054326;28;20021;-76
2023/09/06 05:09:34;;;;;;;7.47;5.40;;;;;;;14.20;100.00;101804.75;5053892;28;20060;-75
2023/09/06 05:11:59;;;;;;;7.43;5.47;;;;;;;14.18;100.00;101807.66;5054203;28;20063;-75
2023/09/06 05:14:29;;;;;;;6.95;5.20;;;;;;;14.17;100.00;101808.69;5052476;28;20025;-75
2023/09/06 05:16:54;;;;;;;7.20;5.90;;;;;;;14.16;100.00;101811.59;5054912;28;20059;-75
2023/09/06 05:19:21;;;;;;;7.25;5.75;;;;;;;14.14;100.00;101816.34;5054965;28;20024;-76
2023/09/06 05:21:46;;;;;;;7.20;5.57;;;;;;;14.13;100.00;101820.09;5055508;28;20029;-76
2023/09/06 05:24:12;;;;;;;5.53;4.95;;;;;;;14.14;100.00;101816.34;5036714;28;20039;-75
2023/09/06 05:26:38;;;;;;;7.15;6.05;;;;;;;14.24;100.00;101814.97;5054127;28;20017;-75
2023/09/06 05:29:04;;;;;;;7.15;6.03;;;;;;;14.30;100.00;101816.06;5054117;28;20028;-75
2023/09/06 05:31:30;;;;;;;7.05;5.55;;;;;;;14.33;100.00;101822.97;5054421;28;20033;-75
2023/09/06 05:33:55;;;;;;;6.45;5.45;;;;;;;14.40;100.00;101818.41;5054111;28;20017;-75
2023/09/06 05:36:21;;;;;;;8.23;5.80;;;;;;;14.49;100.00;101821.78;5054395;28;20032;-75
2023/09/06 05:38:47;;;;;;;6.65;5.50;;;;;;;14.56;100.00;101822.69;5054781;28;20028;-75
2023/09/06 05:41:12;;;;;;;6.93;5.53;;;;;;;14.65;100.00;101826.88;5052647;28;20156;-75
2023/09/06 05:43:38;;;;;;;6.28;5.22;;;;;;;14.75;100.00;101831.16;5052878;28;20041;-75
2023/09/06 05:46:03;;;;;;;6.45;5.15;;;;;;;14.85;100.00;101834.31;5054525;28;20025;-75
2023/09/06 05:48:29;;;;;;;6.05;5.25;;;;;;;14.97;100.00;101829.16;5053628;28;20021;-75
2023/09/06 05:50:55;;;;;;;6.90;5.20;;;;;;;15.09;100.00;101832.13;5053204;28;20504;-75
2023/09/06 05:53:20;;;;;;;5.93;5.20;;;;;;;15.25;100.00;101829.06;5055019;28;20024;-75
2023/09/06 05:55:46;;;;;;;5.65;4.80;;;;;;;15.40;100.00;101837.03;5051545;28;20448;-75
2023/09/06 05:58:11;;;;;;;8.20;5.40;;;;;;;15.50;100.00;101839.34;5052147;28;20021;-75
2023/09/06 06:00:37;;;;;;;7.60;4.90;;;;;;;15.68;100.00;101835.22;5054226;28;20083;-75
2023/09/06 06:03:03;;;;;;;13.02;7.75;;;;;;;15.83;99.48;101841.28;5054151;28;20029;-75
2023/09/06 06:05:28;;;;;;;6.03;5.45;;;;;;;16.14;99.53;101842.56;5053295;28;20029;-76
2023/09/06 06:07:57;;;;;;;7.00;4.70;;;;;;;17.05;95.96;101845.50;5055042;28;20025;-76
2023/09/06 06:10:22;;;;;;;7.90;4.43;;;;;;;18.64;85.02;101840.09;5051988;28;20454;-76
2023/09/06 06:12:48;;;;;;;6.55;4.88;;;;;;;20.33;75.32;101850.31;5035346;28;20044;-76
2023/09/06 06:15:13;;;;;;;6.32;4.72;;;;;;;21.95;69.14;101854.06;5056296;28;20017;-76
2023/09/06 06:17:39;;;;;;;5.47;4.13;;;;;;;23.06;63.89;101861.66;5054372;28;20503;-76
2023/09/06 06:20:06;;;;;;;5.53;4.15;;;;;;;24.24;58.34;101866.63;5064267;28;20418;-75
2023/09/06 06:22:37;;;;;;;4.30;3.90;;;;;;;24.43;56.24;101863.44;5065095;28;20107;-76
2023/09/06 06:25:03;;;;;;;4.82;3.70;;;;;;;25.12;53.42;101867.91;5050457;28;20025;-76
2023/09/06 06:27:29;;;;;;;5.28;3.90;;;;;;;25.43;53.11;101872.69;5051755;28;20021;-76
2023/09/06 06:29:54;;;;;;;3.67;3.30;;;;;;;26.64;49.96;101873.19;5053098;28;20020;-77
2023/09/06 06:32:19;;;;;;;3.70;3.30;;;;;;;27.71;46.23;101872.09;5052965;28;20037;-75
2023/09/06 06:34:49;;;;;;;3.75;3.40;;;;;;;27.54;46.21;101884.34;5053134;28;20023;-75
2023/09/06 06:37:15;;;;;;;5.97;3.60;;;;;;;27.29;47.25;101877.03;5053510;28;20025;-75
2023/09/06 06:39:40;;;;;;;4.30;3.70;;;;;;;27.39;46.49;101876.97;5041281;28;20028;-75
2023/09/06 06:42:06;;;;;;;4.20;3.53;;;;;;;27.83;46.10;101880.81;5038342;28;20051;-75
2023/09/06 06:44:32;;;;;;;4.20;3.33;;;;;;;29.14;42.36;101879.97;5053600;28;20079;-75
2023/09/06 06:46:58;;;;;;;3.97;3.47;;;;;;;28.84;42.73;101881.22;5052603;28;20100;-75
2023/09/06 06:49:23;;;;;;;3.90;3.50;;;;;;;28.66;43.39;101886.41;5052652;28;20376;-75
2023/09/06 06:51:48;;;;;;;3.58;3.13;;;;;;;28.74;43.13;101884.94;5053728;28;20432;-75
2023/09/06 06:54:14;;;;;;;6.35;3.60;;;;;;;29.13;42.06;101881.09;5051460;28;20503;-75
2023/09/06 06:56:40;;;;;;;3.72;3.17;;;;;;;29.28;41.92;101890.34;5052031;28;20040;-75
2023/09/06 06:59:07;;;;;;;4.20;3.58;;;;;;;29.48;41.18;101883.69;5053014;28;20457;-75
2023/09/06 07:01:35;;;;;;;5.35;3.45;;;;;;;29.88;40.68;101880.53;5052469;28;20025;-75
2023/09/06 07:04:01;;;;;;;4.00;3.60;;;;;;;29.49;40.84;101886.13;5074962;22;20154;-75
2023/09/06 07:06:26;;;;;;;5.70;3.20;;;;;;;29.81;40.82;101889.25;5035487;28;20021;-76
2023/09/06 07:08:53;;;;;;;5.38;3.17;;;;;;;30.29;40.08;101881.75;5052053;28;20037;-75
2023/09/06 07:11:19;;;;;;;3.40;3.10;;;;;;;30.97;38.51;101882.91;5052093;28;20125;-76
2023/09/06 07:13:46;;;;;;;4.07;3.40;;;;;;;30.45;38.86;101882.31;5052321;28;20104;-76
2023/09/06 07:16:11;;;;;;;5.10;3.45;;;;;;;29.87;40.23;101878.88;5051816;28;20047;-76
2023/09/06 07:18:36;;;;;;;4.32;3.20;;;;;;;30.36;40.20;101891.34;5052861;28;20029;-76
2023/09/06 07:21:02;;;;;;;3.70;3.08;;;;;;;31.84;37.40;101895.94;5052738;28;20025;-76
2023/09/06 07:23:28;;;;;;;3.72;3.13;;;;;;;32.14;36.02;101892.69;5052584;28;20086;-75
2023/09/06 07:25:53;;;;;;;4.20;2.88;;;;;;;32.82;35.53;101891.69;5053057;28;20424;-76
2023/09/06 07:28:21;;;;;;;2.80;2.60;;;;;;;33.29;33.93;101886.31;5052893;28;20449;-76
2023/09/06 07:30:46;;;;;;;4.00;3.03;;;;;;;32.75;34.69;101895.75;5052858;28;20032;-76
2023/09/06 07:33:12;;;;;;;3.45;2.92;;;;;;;31.80;35.34;101900.50;5052991;28;20278;-76
2023/09/06 07:35:40;;;;;;;2.70;2.50;;;;;;;31.81;35.66;101896.59;5034937;28;20025;-76
2023/09/06 07:38:06;;;;;;;2.72;2.53;;;;;;;33.04;33.84;101899.09;5052975;28;20051;-76
2023/09/06 07:40:32;;;;;;;3.70;2.80;;;;;;;32.38;33.96;101906.28;5053447;28;20025;-75
2023/09/06 07:42:57;;;;;;;3.03;2.55;;;;;;;33.31;32.83;101909.16;5053314;28;20040;-76
2023/09/06 07:45:23;;;;;;;3.65;2.80;;;;;;;32.66;33.62;101908.81;5054512;28;20049;-76
2023/09/06 07:47:50;;;;;;;4.97;3.28;;;;;;;32.33;33.68;101895.25;5054153;28;20025;-75
2023/09/06 07:50:18;;;;;;;3.55;3.00;;;;;;;32.44;34.17;101893.00;5053545;28;20036;-76
2023/09/06 07:52:45;;;;;;;4.63;3.00;;;;;;;32.24;34.42;101894.38;5057416;28;20041;-75
2023/09/06 07:55:12;;;;;;;4.13;2.78;;;;;;;32.67;33.67;101899.31;5057767;28;20402;-75
2023/09/06 07:57:40;;;;;;;5.75;2.85;;;;;;;32.43;34.26;101900.56;5070174;28;20017;-76
2023/09/06 08:00:11;;;;;;;4.38;2.95;;;;;;;32.25;34.39;101896.81;5192785;22;20049;-76
2023/09/06 08:02:36;;;;;;;4.35;2.55;;;;;;;32.59;33.62;101902.91;5080588;28;20086;-76
2023/09/06 08:05:04;;;;;;;3.28;2.58;;;;;;;33.00;33.26;101893.38;5074288;28;20447;-75
2023/09/06 08:07:29;;;;;;;4.32;2.72;;;;;;;34.44;30.75;101901.75;5076201;28;20465;-76
2023/09/06 08:09:55;;;;;;;5.15;2.53;;;;;;;34.80;30.56;101904.38;5073143;28;20035;-76
2023/09/06 08:12:21;;;;;;;4.47;2.38;;;;;;;35.04;30.66;101906.53;5074694;28;20032;-76
2023/09/06 08:14:58;;;;;;;3.83;2.95;;;;;;;34.95;30.06;101908.59;5059053;28;20032;-76
2023/09/06 08:17:23;;;;;;;2.90;2.60;;;;;;;35.18;29.09;101901.50;5074570;28;20364;-76
2023/09/06 08:19:55;;;;;;;3.28;2.50;;;;;;;34.81;29.69;101895.63;5064893;28;20528;-75
2023/09/06 08:22:21;;;;;;;3.20;2.70;;;;;;;34.59;30.60;101894.78;5056161;28;20040;-75
2023/09/06 08:24:57;;;;;;;4.85;2.50;;;;;;;34.04;31.13;101895.66;5066814;28;20024;-76
2023/09/06 08:27:31;;;;;;;3.00;2.70;;;;;;;33.76;31.27;101896.00;5074963;28;20066;-76
2023/09/06 08:29:58;;;;;;;6.22;2.80;;;;;;;33.51;31.91;101898.50;5061273;28;20028;-76
2023/09/06 08:32:23;;;;;;;3.45;2.67;;;;;;;34.18;31.50;101901.84;5053241;28;20037;-76
2023/09/06 08:34:49;;;;;;;2.38;2.10;;;;;;;34.89;30.26;101905.13;5056599;28;20487;-76
2023/09/06 08:37:14;;;;;;;5.28;2.50;;;;;;;34.62;30.11;101904.47;5057491;28;20050;-76
2023/09/06 08:39:40;;;;;;;2.45;2.25;;;;;;;34.51;30.92;101904.03;5068373;28;20098;-75
2023/09/06 08:42:06;;;;;;;4.85;2.40;;;;;;;35.66;29.70;101907.69;5075714;28;20032;-76
2023/09/06 08:44:31;;;;;;;4.78;2.33;;;;;;;35.97;28.73;101889.59;5075192;28;20024;-76
2023/09/06 08:46:57;;;;;;;2.55;2.20;;;;;;;36.64;27.59;101905.44;5073435;28;20021;-76
2023/09/06 08:49:22;;;;;;;2.95;2.40;;;;;;;35.28;29.11;101903.06;5038618;28;20353;-76
2023/09/06 08:51:48;;;;;;;4.15;2.30;;;;;;;35.42;28.37;101893.56;5021494;28;20035;-76
2023/09/06 08:54:13;;;;;;;3.35;2.55;;;;;;;35.69;27.86;101900.56;5044236;28;20024;-76
2023/09/06 08:56:39;;;;;;;2.78;2.45;;;;;;;35.31;28.12;101895.94;5072685;28;20412;-76
2023/09/06 08:59:05;;;;;;;3.45;2.50;;;;;;;35.91;27.34;101890.13;5056671;28;20031;-76
2023/09/06 09:01:30;;;;;;;2.83;2.40;;;;;;;36.32;26.98;101899.56;5074358;28;20041;-76
2023/09/06 09:03:58;;;;;;;4.88;2.60;;;;;;;36.23;27.50;101894.06;5075345;28;20111;-75
2023/09/06 09:06:25;;;;;;;3.50;2.58;;;;;;;36.22;27.57;101891.59;5076092;28;20168;-76
2023/09/06 09:08:50;;;;;;;3.03;2.70;;;;;;;36.26;26.65;101892.56;5078813;28;20081;-77
2023/09/06 09:11:18;;;;;;;2.72;2.35;;;;;;;36.38;27.43;101900.16;5081678;28;20025;-76
2023/09/06 09:13:44;;;;;;;3.20;2.90;;;;;;;35.27;28.36;101900.63;5077530;28;20025;-76
2023/09/06 09:16:10;;;;;;;3.25;2.60;;;;;;;35.44;28.48;101897.69;5065152;28;20024;-76
2023/09/06 09:18:37;;;;;;;2.90;2.25;;;;;;;34.88;28.96;101890.31;5056218;28;20025;-76
2023/09/06 09:21:05;;;;;;;3.00;2.63;;;;;;;35.09;27.56;101889.56;5058936;28;20025;-76
2023/09/06 09:23:31;;;;;;;5.20;2.40;;;;;;;35.22;28.11;101898.81;5060763;28;20515;-76
2023/09/06 09:25:56;;;;;;;3.72;2.40;;;;;;;35.00;28.30;101895.22;5073556;28;20028;-76
2023/09/06 09:28:34;;;;;;;3.70;2.85;;;;;;;34.59;29.67;101883.59;5068173;22;20044;-76
2023/09/06 09:31:16;;;;;;;2.97;2.75;;;;;;;34.88;28.34;101889.50;5019606;28;20103;-76
2023/09/06 09:33:59;;;;;;;2.80;2.55;;;;;;;35.28;27.96;101896.66;5052657;28;20037;-76
2023/09/06 09:36:28;;;;;;;2.70;2.50;;;;;;;35.67;27.68;101897.28;5054336;28;20055;-76
2023/09/06 09:39:06;;;;;;;3.40;2.17;;;;;;;36.04;27.49;101885.41;5060430;28;20028;-76
2023/09/06 09:41:32;;;;;;;3.65;2.80;;;;;;;35.94;26.84;101889.44;5037499;28;20345;-76
2023/09/06 09:44:15;;;;;;;4.18;2.42;;;;;;;37.04;26.02;101897.47;5055276;28;20143;-76
2023/09/06 09:46:46;;;;;;;3.03;2.50;;;;;;;36.21;26.34;101896.41;5054201;28;20078;-76
2023/09/06 09:49:12;;;;;;;4.57;2.70;;;;;;;35.80;27.13;101889.75;5069046;28;20031;-76
2023/09/06 09:51:38;;;;;;;4.57;2.60;;;;;;;36.25;25.82;101888.09;5067966;28;20017;-76
2023/09/06 09:54:04;;;;;;;2.55;2.35;;;;;;;37.33;25.04;101890.69;5063956;28;20044;-76
2023/09/06 09:56:30;;;;;;;4.47;3.05;;;;;;;37.31;25.28;101879.81;5074195;28;20036;-76
2023/09/06 09:58:56;;;;;;;3.45;2.50;;;;;;;37.32;25.12;101884.25;5075783;28;20025;-76
2023/09/06 10:01:22;;;;;;;3.25;2.33;;;;;;;36.93;26.81;101886.72;5073308;28;20031;-76
2023/09/06 10:03:49;;;;;;;4.35;2.65;;;;;;;37.44;25.35;101891.00;5056782;28;20491;-76
2023/09/06 10:06:14;;;;;;;5.22;2.67;;;;;;;37.75;24.73;101883.84;5036735;28;20112;-76
2023/09/06 10:08:39;;;;;;;4.78;2.60;;;;;;;37.03;25.88;101887.41;5039480;28;20387;-76
2023/09/06 10:11:06;;;;;;;2.92;2.58;;;;;;;37.25;25.12;101875.59;5072284;28;20028;-76
2023/09/06 10:13:32;;;;;;;3.08;2.40;;;;;;;37.23;26.27;101875.19;5073218;28;20020;-76
2023/09/06 10:15:58;;;;;;;2.90;2.55;;;;;;;37.53;25.73;101868.38;5073455;28;20438;-76
2023/09/06 10:18:23;;;;;;;3.08;2.40;;;;;;;38.10;24.25;101871.09;5060923;28;20025;-76
2023/09/06 10:20:48;;;;;;;3.20;2.60;;;;;;;37.81;25.19;101868.34;5053566;28;20047;-76
2023/09/06 10:23:14;;;;;;;4.22;2.40;;;;;;;37.85;25.22;101874.88;5031243;28;20071;-76
2023/09/06 10:25:40;;;;;;;3.35;2.70;;;;;;;37.03;25.72;101870.56;5052386;28;20044;-76
2023/09/06 10:28:05;;;;;;;3.58;2.92;;;;;;;36.37;26.16;101874.09;5053167;28;20044;-76
2023/09/06 10:30:48;;;;;;;4.57;2.70;;;;;;;36.86;25.87;101873.25;5052618;28;20032;-76
2023/09/06 10:33:42;;;;;;;4.53;2.60;;;;;;;36.04;26.91;101875.00;5053380;28;20393;-76
2023/09/06 10:36:12;;;;;;;3.28;2.72;;;;;;;36.65;25.77;101867.81;5053672;28;20500;-76
2023/09/06 10:39:04;;;;;;;3.70;2.58;;;;;;;38.18;24.78;101858.88;5051452;28;20115;-76
2023/09/06 10:41:29;;;;;;;4.50;2.60;;;;;;;37.34;25.01;101857.81;5050356;28;20037;-76
2023/09/06 10:44:06;;;;;;;4.07;2.40;;;;;;;37.30;25.63;101857.72;5054349;28;20036;-76
2023/09/06 10:46:39;;;;;;;2.90;2.60;;;;;;;37.56;24.69;101864.84;5051882;28;20035;-76
2023/09/06 10:49:25;;;;;;;3.57;2.60;;;;;;;38.02;24.57;101858.88;5070590;28;20033;-76
2023/09/06 10:51:57;;;;;;;4.50;2.65;;;;;;;37.83;24.07;101857.56;5058933;28;20039;-76
2023/09/06 10:54:33;;;;;;;4.47;2.63;;;;;;;37.58;24.21;101863.34;5053114;28;20181;-76
2023/09/06 10:57:01;;;;;;;2.92;2.40;;;;;;;38.08;24.10;101851.81;5053694;28;20380;-76
2023/09/06 10:59:27;;;;;;;3.95;2.60;;;;;;;37.54;24.36;101853.16;5052329;28;20079;-76
2023/09/06 11:02:16;;;;;;;2.95;2.65;;;;;;;36.78;24.46;101859.34;5052538;28;20473;-76
2023/09/06 11:04:42;;;;;;;3.15;2.85;;;;;;;37.52;24.83;101856.34;5059716;28;20056;-76
2023/09/06 11:07:11;;;;;;;5.53;2.67;;;;;;;38.49;23.37;101857.22;5071534;28;20023;-76
2023/09/06 11:09:43;;;;;;;3.50;2.40;;;;;;;38.28;24.14;101863.13;5054553;28;20040;-76
2023/09/06 11:12:09;;;;;;;5.07;2.60;;;;;;;36.99;25.39;101862.84;5055245;28;20028;-77
2023/09/06 11:14:34;;;;;;;3.97;2.58;;;;;;;36.94;24.42;101856.66;5054049;28;20579;-77
2023/09/06 11:17:01;;;;;;;3.55;2.60;;;;;;;37.61;24.72;101844.94;5085121;22;20062;-76
2023/09/06 11:19:29;;;;;;;3.20;2.60;;;;;;;38.50;23.37;101856.84;5051503;28;20472;-76
2023/09/06 11:22:07;;;;;;;2.40;2.20;;;;;;;38.64;22.07;101850.72;5072385;28;20024;-76
2023/09/06 11:24:35;;;;;;;3.13;2.28;;;;;;;39.32;22.18;101844.13;5054162;28;20085;-76
2023/09/06 11:27:22;;;;;;;3.95;2.72;;;;;;;39.14;20.79;101844.56;5075590;28;20028;-76
2023/09/06 11:29:58;;;;;;;2.40;2.20;;;;;;;38.64;21.57;101844.31;5077209;28;20024;-77